Flight Track Log - Related Links

Times and Time Zones

All times are in EDT time to prevent confusion due to time zone crossing. See the ASQ4976 flight status page for this flight to view local times or setup timezone preferences in your user account.

Time Position Orientation Groundspeed Altitude Reporting Facility
EDT Latitude Longitude Course Direction KTS MPH feet Rate Location/Type
Wed 06:12:15 PM 35.1950 -80.9356 168° South 159 183 1,400  Level Atlanta Center
Wed 06:13:10 PM 35.1444 -80.9222 168° South 216 249 2,500 1,966 Climbing Atlanta Center
Wed 06:14:11 PM 35.0972 -80.8606 133° Southeast 277 319 5,200 2,662 Climbing Atlanta Center
Wed 06:15:32 PM 35.1189 -80.7428 77° East 289 333 8,800 2,426 Climbing Atlanta Center
Wed 06:16:32 PM 35.1628 -80.6622 56° Northeast 283 326 10,900 1,800 Climbing Atlanta Center
Wed 06:17:32 PM 35.2144 -80.5661 57° Northeast 317 365 12,400 1,500 Climbing Atlanta Center
Wed 06:18:32 PM 35.2697 -80.4594 58° Northeast 349 402 13,900 1,900 Climbing Atlanta Center
Wed 06:19:32 PM 35.3269 -80.3503 57° Northeast 379 436 16,200 2,000 Climbing Atlanta Center
Wed 06:20:32 PM 35.3861 -80.2406 56° Northeast 379 436 17,900 1,500 Climbing Atlanta Center
Wed 06:22:04 PM 35.4481 -80.0744 65° Northeast 378 435 20,000 1,490 Climbing Washington Center
Wed 06:23:05 PM 35.4869 -79.9286 72° East 391 450 21,700 1,438 Climbing Washington Center
Wed 06:24:05 PM 35.5256 -79.7800 72° East 403 464 22,900 1,091 Climbing Washington Center
Wed 06:25:06 PM 35.5642 -79.6339 72° East 421 484 23,900 992 Climbing Washington Center
Wed 06:26:06 PM 35.6003 -79.4878 73° East 438 504 24,900 1,068 Climbing Washington Center
Wed 06:27:04 PM 35.6508 -79.3419 67° East 450 518 26,000 1,059 Climbing Washington Center
Wed 06:28:05 PM 35.7072 -79.2014 64° Northeast 450 518 27,000 984 Climbing Washington Center
Wed 06:29:06 PM 35.7658 -79.0606 63° Northeast 455 524 28,000 992 Climbing Washington Center
Wed 06:30:06 PM 35.8264 -78.9094 64° Northeast 465 535 29,000 966 Climbing Washington Center
Wed 06:31:04 PM 35.8947 -78.7689 59° Northeast 470 541 29,900 807 Climbing Washington Center
Wed 06:32:05 PM 36.0058 -78.6706 36° Northeast 470 541 30,600 689 Climbing Washington Center
Wed 06:33:06 PM 36.1211 -78.5722 35° Northeast 477 549 31,300 706 Climbing Washington Center
Wed 06:34:04 PM 36.2319 -78.4708 36° Northeast 490 564 32,000 706 Climbing Washington Center
Wed 06:35:05 PM 36.3492 -78.3719 34° Northeast 502 578 32,700 492 Climbing Washington Center
Wed 06:36:06 PM 36.4642 -78.2650 37° Northeast 513 590 33,000 151 Climbing Washington Center
Wed 06:37:04 PM 36.5794 -78.1553 37° Northeast 519 597 33,000  Level Washington Center
Wed 06:38:04 PM 36.6817 -78.0472 40° Northeast 519 597 33,000  Level Washington Center
Wed 06:39:04 PM 36.8008 -77.9289 38° Northeast 535 616 33,000  Level Washington Center
Wed 06:40:05 PM 36.9158 -77.8131 39° Northeast 535 616 33,000  Level Washington Center
Wed 06:41:06 PM 37.0328 -77.6942 39° Northeast 535 616 33,000  Level Washington Center
Wed 06:42:06 PM 37.1494 -77.5747 39° Northeast 535 616 33,000  Level Washington Center
Wed 06:43:05 PM 37.2681 -77.4553 39° Northeast 535 616 33,000  Level Washington Center
Wed 06:44:05 PM 37.3889 -77.3353 38° Northeast 535 616 33,000  Level Washington Center
Wed 06:45:06 PM 37.5075 -77.2150 39° Northeast 540 621 33,000  Level Washington Center
Wed 06:46:04 PM 37.6278 -77.0917 39° Northeast 546 628 33,000  Level Washington Center
Wed 06:47:05 PM 37.7461 -76.9653 40° Northeast 551 634 33,000  Level Washington Center
Wed 06:48:06 PM 37.8664 -76.8411 39° Northeast 551 634 33,000  Level Washington Center
Wed 06:49:06 PM 37.9844 -76.7194 39° Northeast 551 634 33,000  Level Washington Center
Wed 06:50:04 PM 38.1022 -76.5944 40° Northeast 551 634 33,000  Level Washington Center
Wed 06:51:05 PM 38.2222 -76.4692 39° Northeast 551 634 33,000  Level Washington Center
Wed 06:52:06 PM 38.3397 -76.3514 38° Northeast 546 628 33,000  Level Washington Center
Wed 06:53:04 PM 38.4633 -76.2361 36° Northeast 546 628 33,000 -605 Level Washington Center
Wed 06:54:05 PM 38.5892 -76.1203 36° Northeast 546 628 31,800 -1,438 Descending Washington Center
Wed 06:55:05 PM 38.7144 -76.0094 35° Northeast 551 634 30,100 -1,736 Descending Washington Center
Wed 06:56:06 PM 38.8336 -75.8928 37° Northeast 551 634 28,300 -1,563 Descending Washington Center
Wed 06:57:04 PM 38.9422 -75.7892 37° Northeast 523 602 27,000 -655 Descending Washington Center
Wed 06:58:05 PM 39.0508 -75.6906 35° Northeast 491 565 27,000 -148 Level Washington Center
Wed 06:59:06 PM 39.1592 -75.5889 36° Northeast 484 557 26,700 -908 Descending Washington Center
Wed 07:00:04 PM 39.2656 -75.4869 37° Northeast 479 551 25,200 -1,361 Descending Washington Center
Wed 07:01:05 PM 39.3717 -75.3956 34° Northeast 467 537 24,000 -590 Descending Washington Center
Wed 07:02:06 PM 39.4694 -75.3067 35° Northeast 451 519 24,000 -347 Level Washington Center
Wed 07:03:06 PM 39.5672 -75.2175 35° Northeast 436 502 23,300 -1,475 Descending Washington Center
Wed 07:04:04 PM 39.6583 -75.1306 36° Northeast 424 488 21,100 -2,250 Descending Washington Center
Wed 07:05:06 PM 39.7622 -75.0408 34° Northeast 407 468 18,800 -2,262 Descending Washington Center
Wed 07:06:06 PM 39.8536 -74.9617 34° Northeast 392 451 16,500 -2,237 Descending Washington Center
Wed 07:07:04 PM 39.9364 -74.8797 37° Northeast 392 451 14,400 -2,220 Descending Washington Center
Wed 07:07:46 PM 39.9833 -74.8167 46° Northeast 361 415 12,800 -2,176 Descending New York TRACON
Wed 07:08:46 PM 40.0500 -74.7167 49° Northeast 352 405 10,700 -1,350 Descending New York TRACON
Wed 07:09:46 PM 40.1167 -74.6167 49° Northeast 345 397 10,100 -300 Descending New York TRACON
Wed 07:10:46 PM 40.1833 -74.5333 44° Northeast 345 397 10,100  Level New York TRACON
Wed 07:11:46 PM 40.2500 -74.4500 44° Northeast 342 394 10,100 -400 Level New York TRACON
Wed 07:12:46 PM 40.3000 -74.3667 52° Northeast 292 336 9,300 -1,250 Descending New York TRACON
Wed 07:13:46 PM 40.3667 -74.3000 37° Northeast 277 319 7,600 -1,100 Descending New York TRACON
Wed 07:14:46 PM 40.4167 -74.2333 45° Northeast 275 316 7,100 -400 Descending New York TRACON
Wed 07:15:46 PM 40.4667 -74.1500 52° Northeast 278 320 6,800 -1,100 Descending New York TRACON
Wed 07:16:46 PM 40.5333 -74.1000 30° Northeast 271 312 4,900 -1,350 Descending New York TRACON
Wed 07:17:46 PM 40.6000 -74.0667 21° North 257 296 4,100 -403 Descending New York TRACON
Wed 07:18:45 PM 40.6667 -74.0333 21° North 268 308 4,100  Level New York TRACON
Wed 07:19:46 PM 40.7333 -74.0167 11° North 263 303 4,100  Level New York TRACON
Wed 07:20:45 PM 40.8000 -73.9833 21° North 262 302 4,100 -350 Level New York TRACON
Wed 07:21:46 PM 40.8667 -73.9333 30° Northeast 267 307 3,400 -522 Descending New York TRACON
Wed 07:22:40 PM 40.9333 -73.9000 21° North 230 265 3,100 -158 Descending New York TRACON
Wed 07:23:40 PM 40.9500 -73.8500 66° East 196 226 3,100 -450 Level New York TRACON
Wed 07:24:40 PM 40.9333 -73.7833 108° East 189 217 2,200 -900 Descending New York TRACON

Login

Don't have an account? Register now (free) for customized features, flight alerts, and more!